Time;durP1;ratioP1;P1;durP2;ratioP2;P2;SDS_P1;SDS_P2;PMS_P1;PMS_P2;Temp;Humidity;BMP_temperature;BMP_pressure;BME280_temperature;BME280_humidity;BME280_pressure;Samples;Min_cycle;Max_cycle;Signal;HPM_P1;HPM_P2
2022/01/23 00:00:07;;;;;;;24.70;10.70;;;;;;;-6.15;77.49;99771.20;219682;1271;25497;-67
2022/01/23 00:05:12;;;;;;;20.50;9.40;;;;;;;-6.17;77.70;99770.48;219702;1271;24240;-67
2022/01/23 00:10:15;;;;;;;30.70;12.30;;;;;;;-6.16;77.77;99758.80;219601;1271;24911;-67
2022/01/23 00:20:38;;;;;;;27.70;12.20;;;;;;;-6.01;78.16;99764.36;219811;1271;25597;-68
2022/01/23 00:31:01;;;;;;;30.80;14.10;;;;;;;-5.85;78.24;99759.89;220017;1271;25591;-68
2022/01/23 00:36:04;;;;;;;25.90;11.20;;;;;;;-5.80;78.17;99750.00;219718;1271;22864;-68
2022/01/23 00:41:09;;;;;;;26.70;11.70;;;;;;;-5.78;78.22;99752.58;220035;1269;22689;-68
2022/01/23 00:51:35;;;;;;;29.70;13.00;;;;;;;-5.81;78.26;99753.13;220156;1271;22724;-68
2022/01/23 00:56:40;;;;;;;29.60;11.80;;;;;;;-5.85;78.22;99755.77;219781;1271;22613;-67
2022/01/23 01:01:43;;;;;;;33.20;13.80;;;;;;;-5.92;78.31;99755.21;219989;1271;22629;-68
2022/01/23 01:06:46;;;;;;;33.90;15.20;;;;;;;-6.01;78.27;99754.41;220019;1271;22835;-68
2022/01/23 01:11:57;;;;;;;32.10;14.10;;;;;;;-6.09;78.23;99742.05;219741;1271;22780;-68
2022/01/23 01:17:10;;;;;;;33.40;14.40;;;;;;;-6.18;78.24;99730.80;220185;1270;24676;-69
2022/01/23 01:33:22;;;;;;;33.90;17.50;;;;;;;-6.61;78.11;99748.27;219833;1271;22623;-69
2022/01/23 01:38:25;;;;;;;38.60;17.40;;;;;;;-6.80;78.45;99750.48;220091;1271;25274;-68
2022/01/23 01:43:28;;;;;;;33.50;16.20;;;;;;;-6.83;78.88;99747.86;220096;1271;22716;-67
2022/01/23 01:48:31;;;;;;;34.00;16.00;;;;;;;-6.78;79.30;99744.36;219770;1271;22819;-68
2022/01/23 01:54:09;;;;;;;34.30;14.00;;;;;;;-6.69;79.50;99734.32;220138;1271;23340;-68
2022/01/23 01:59:22;;;;;;;26.40;12.90;;;;;;;-6.59;79.64;99743.71;220205;1271;22795;-68
2022/01/23 02:10:53;;;;;;;29.70;13.80;;;;;;;-6.38;79.78;99759.00;220032;1271;22629;-68
2022/01/23 02:54:19;;;;;;;29.70;13.40;;;;;;;-6.76;79.80;99773.86;220243;1270;22937;-68
2022/01/23 02:59:29;;;;;;;31.10;14.50;;;;;;;-6.92;79.64;99771.70;220032;1271;24501;-68
2022/01/23 03:04:51;;;;;;;;;;;;;;;-7.06;80.01;99769.48;220035;1271;22578;-66
2022/01/23 03:10:18;;;;;;;37.40;16.50;;;;;;;-7.12;80.46;99775.54;220023;1271;22700;-69
2022/01/23 03:15:31;;;;;;;37.70;16.60;;;;;;;-7.15;80.55;99785.23;219969;1271;22551;-68
2022/01/23 03:36:21;;;;;;;43.10;20.40;;;;;;;-6.78;81.53;99787.81;220231;1271;22774;-68
2022/01/23 03:41:25;;;;;;;41.10;18.30;;;;;;;-6.65;81.61;99781.83;220208;1271;22678;-68
2022/01/23 03:46:47;;;;;;;36.80;16.10;;;;;;;-6.54;81.55;99778.21;220100;1271;22703;-67
2022/01/23 03:51:52;;;;;;;31.70;15.00;;;;;;;-6.44;81.76;99779.40;220029;1271;22710;-68
2022/01/23 03:56:57;;;;;;;35.00;16.00;;;;;;;-6.30;81.78;99771.77;219927;1271;24782;-68
2022/01/23 04:01:59;;;;;;;28.00;13.30;;;;;;;-6.16;81.71;99770.27;220254;1271;25033;-68
2022/01/23 04:07:03;;;;;;;30.50;15.00;;;;;;;-6.06;81.72;99773.73;220162;1271;25616;-69
2022/01/23 04:12:07;;;;;;;30.60;14.50;;;;;;;-5.96;81.63;99781.42;220025;1271;24257;-69
2022/01/23 05:00:04;;;;;;;38.60;17.00;;;;;;;-5.40;81.09;99818.16;219980;1271;22794;-68
2022/01/23 05:05:08;;;;;;;37.40;17.30;;;;;;;-5.38;81.31;99810.24;220094;1271;24259;-68
2022/01/23 05:10:29;;;;;;;42.60;20.20;;;;;;;-5.36;81.30;99819.79;219944;1271;23128;-68
2022/01/23 05:15:41;;;;;;;39.20;20.10;;;;;;;-5.29;81.44;99823.11;219745;1271;22668;-68
2022/01/23 05:20:45;;;;;;;44.20;20.90;;;;;;;-5.24;81.57;99818.28;219637;1271;22685;-69
2022/01/23 05:25:50;;;;;;;44.70;22.00;;;;;;;-5.19;81.63;99824.83;220184;1271;24361;-69
2022/01/23 05:30:55;;;;;;;49.30;21.20;;;;;;;-5.11;81.67;99828.63;220241;1271;24252;-69
2022/01/23 05:35:58;;;;;;;46.20;20.50;;;;;;;-5.04;81.73;99847.91;219726;1271;25597;-68
2022/01/23 05:41:01;;;;;;;43.20;20.80;;;;;;;-5.00;81.56;99856.48;220121;1272;23631;-68
2022/01/23 05:46:04;;;;;;;41.80;19.80;;;;;;;-4.97;81.57;99860.24;220255;1271;22833;-67
2022/01/23 05:51:12;;;;;;;37.20;18.50;;;;;;;-4.95;81.53;99862.02;220112;1271;22642;-69
2022/01/23 05:56:36;;;;;;;34.40;16.20;;;;;;;-4.93;81.76;99853.59;220212;1271;22591;-68
2022/01/23 06:01:55;;;;;;;33.00;17.50;;;;;;;-4.90;81.81;99853.59;220250;1271;24243;-69
2022/01/23 06:07:14;;;;;;;37.10;18.30;;;;;;;-4.86;81.90;99846.67;219771;1271;22677;-68
2022/01/23 06:12:38;;;;;;;41.70;18.20;;;;;;;-4.80;81.98;99852.33;220012;1271;24451;-68
2022/01/23 06:17:50;;;;;;;32.20;16.80;;;;;;;-4.72;81.92;99841.03;220051;1271;22779;-69
2022/01/23 06:23:11;;;;;;;34.10;16.80;;;;;;;-4.65;81.89;99844.14;220150;1271;22874;-66
2022/01/23 06:28:44;;;;;;;33.00;16.40;;;;;;;-4.58;81.97;99855.42;220052;1271;22636;-67
2022/01/23 06:33:47;;;;;;;36.90;18.90;;;;;;;-4.52;82.09;99864.88;220029;1271;22770;-68
2022/01/23 06:38:49;;;;;;;39.40;19.30;;;;;;;-4.47;81.97;99887.44;220033;1271;22797;-68
2022/01/23 06:43:52;;;;;;;44.80;21.30;;;;;;;-4.43;81.95;99891.85;220002;1271;22693;-66
2022/01/23 06:49:11;;;;;;;40.50;20.40;;;;;;;-4.36;81.94;99897.80;219747;1271;22785;-69
2022/01/23 06:54:15;;;;;;;43.90;21.00;;;;;;;-4.32;81.70;99905.19;219934;1271;24239;-68
2022/01/23 06:59:17;;;;;;;43.50;21.00;;;;;;;-4.26;81.83;99908.63;219987;1271;24257;-68
2022/01/23 07:04:26;;;;;;;42.20;19.90;;;;;;;-4.19;81.92;99903.45;219801;1271;24302;-68
2022/01/23 07:09:43;;;;;;;41.10;20.10;;;;;;;-4.11;81.96;99902.95;219828;1271;22832;-68
2022/01/23 07:15:04;;;;;;;36.80;18.80;;;;;;;-4.00;82.04;99909.25;219614;1271;22693;-68
2022/01/23 07:20:36;;;;;;;36.90;17.80;;;;;;;-3.98;81.60;99916.40;220077;1271;22710;-67
2022/01/23 07:26:03;;;;;;;43.30;20.40;;;;;;;-3.97;81.70;99914.90;219745;1271;25369;-68
2022/01/23 07:31:10;;;;;;;44.60;20.80;;;;;;;-3.93;81.67;99913.11;219717;1271;25460;-69
2022/01/23 07:36:20;;;;;;;43.50;19.60;;;;;;;-3.84;81.92;99919.98;219756;1271;22740;-68
2022/01/23 07:41:22;;;;;;;43.00;20.20;;;;;;;-3.69;82.03;99918.34;219691;1271;22570;-68
2022/01/23 07:46:54;;;;;;;41.70;19.20;;;;;;;-3.51;82.05;99919.20;219689;1271;25393;-68
2022/01/23 07:52:20;;;;;;;44.40;19.50;;;;;;;-3.36;81.98;99931.84;219694;1271;25593;-68
2022/01/23 07:57:35;;;;;;;40.10;20.10;;;;;;;-3.11;82.25;99951.55;219823;1270;25956;-68
2022/01/23 08:03:14;;;;;;;42.10;19.80;;;;;;;-2.88;82.00;99969.80;219476;1271;22599;-68
2022/01/23 08:08:40;;;;;;;37.70;18.70;;;;;;;-2.68;81.70;99986.02;219993;1271;25458;-68
2022/01/23 08:13:59;;;;;;;36.80;18.00;;;;;;;-2.57;81.38;99992.39;219976;1271;22772;-69
2022/01/23 08:19:21;;;;;;;40.10;19.50;;;;;;;-2.47;81.11;100003.53;219620;1271;251425;-68
2022/01/23 08:24:24;;;;;;;36.20;18.40;;;;;;;-2.44;80.75;99994.23;219836;1270;24240;-69
2022/01/23 08:29:26;;;;;;;38.70;19.20;;;;;;;-2.41;81.03;99986.00;220064;1271;22641;-68
2022/01/23 08:34:28;;;;;;;35.30;18.00;;;;;;;-2.24;81.08;99993.62;219920;1271;22553;-68
2022/01/23 08:39:34;;;;;;;31.50;18.10;;;;;;;-2.16;80.92;99994.77;219995;1271;25422;-68
2022/01/23 08:44:45;;;;;;;37.40;18.20;;;;;;;-2.04;80.72;99999.77;219588;1269;22603;-69
2022/01/23 08:49:53;;;;;;;40.00;19.90;;;;;;;-1.94;80.78;100001.23;219776;1271;22638;-68
2022/01/23 08:54:59;;;;;;;37.10;18.70;;;;;;;-1.92;80.33;100007.07;219874;1271;24158;-67
2022/01/23 09:00:01;;;;;;;39.30;19.90;;;;;;;-1.92;80.31;100009.85;219879;1271;22586;-67
2022/01/23 09:05:04;;;;;;;39.00;18.40;;;;;;;-1.82;80.80;100016.84;219767;1268;24094;-68
2022/01/23 09:10:10;;;;;;;44.20;21.50;;;;;;;-1.73;80.43;100020.11;220155;1271;24184;-68
2022/01/23 09:15:12;;;;;;;47.30;23.40;;;;;;;-1.63;80.27;100027.13;219767;1271;26172;-68
2022/01/23 09:20:15;;;;;;;39.50;19.90;;;;;;;-1.50;80.46;100030.65;219843;1271;26250;-68
2022/01/23 09:25:18;;;;;;;35.90;19.10;;;;;;;-1.39;79.97;100036.56;219876;1271;25273;-68
2022/01/23 09:30:22;;;;;;;35.60;18.50;;;;;;;-1.29;80.05;100035.52;219967;1271;24307;-67
2022/01/23 09:35:24;;;;;;;37.70;17.50;;;;;;;-1.09;80.38;100044.81;219875;1271;23006;-68
2022/01/23 09:40:27;;;;;;;43.80;20.90;;;;;;;-0.84;80.15;100044.52;219879;1271;23076;-69
2022/01/23 09:45:30;;;;;;;35.90;18.80;;;;;;;-0.62;80.12;100041.75;220068;1271;22535;-68
2022/01/23 09:50:36;;;;;;;36.30;17.40;;;;;;;-0.52;79.50;100041.06;219834;1271;22740;-68
2022/01/23 09:55:44;;;;;;;34.10;16.50;;;;;;;-0.45;79.22;100038.50;219914;1271;24403;-68
2022/01/23 10:01:09;;;;;;;31.80;16.70;;;;;;;-0.42;79.05;100037.77;219878;1271;24250;-67
2022/01/23 10:06:53;;;;;;;36.90;18.70;;;;;;;-0.34;79.05;100036.25;219929;1271;22590;-67
2022/01/23 10:12:26;;;;;;;;;;;;;;;;;;;;;
2022/01/23 10:17:41;;;;;;;42.60;19.60;;;;;;;-0.32;78.84;100030.59;219897;1271;22573;-70
2022/01/23 10:22:48;;;;;;;33.60;18.40;;;;;;;-0.27;78.36;100033.48;220066;1271;25609;-68
2022/01/23 10:27:56;;;;;;;31.60;16.40;;;;;;;-0.24;78.52;100032.06;220066;1271;22860;-68
2022/01/23 10:33:04;;;;;;;31.40;16.00;;;;;;;-0.20;78.54;100030.71;220131;1271;25263;-68
2022/01/23 10:38:13;;;;;;;30.60;13.80;;;;;;;-0.14;78.54;100028.47;220048;1271;25373;-69
2022/01/23 10:48:46;;;;;;;25.30;13.70;;;;;;;-0.16;78.07;100009.88;220044;1271;23005;-69
2022/01/23 10:54:03;;;;;;;22.50;13.60;;;;;;;-0.17;77.85;100008.63;219933;1271;25336;-68
2022/01/23 10:59:11;;;;;;;24.20;12.50;;;;;;;-0.06;78.34;100013.92;219896;1271;25438;-69
2022/01/23 11:04:28;;;;;;;26.10;14.50;;;;;;;0.10;77.86;100017.02;219940;1271;23177;-71
2022/01/23 11:09:34;;;;;;;19.70;10.60;;;;;;;0.18;77.32;100009.48;219942;1271;25444;-69
2022/01/23 11:20:12;;;;;;;20.60;11.40;;;;;;;0.48;77.42;100001.35;219913;1271;22548;-70
2022/01/23 11:25:20;;;;;;;21.60;11.50;;;;;;;0.58;76.94;100009.38;220053;1271;23811;-69
2022/01/23 11:30:35;;;;;;;21.90;11.40;;;;;;;0.75;77.12;100011.75;219844;1271;24114;-69
2022/01/23 11:35:52;;;;;;;19.30;11.80;;;;;;;0.96;76.87;100007.29;220004;1271;22632;-68
2022/01/23 11:57:42;;;;;;;19.00;11.00;;;;;;;1.46;75.68;100018.58;219733;1271;24174;-69
2022/01/23 12:03:14;;;;;;;21.00;11.10;;;;;;;1.38;75.26;100016.92;220324;1270;22569;-69
2022/01/23 12:08:23;;;;;;;22.30;11.40;;;;;;;1.29;75.28;100030.36;220290;1271;22517;-68
2022/01/23 12:13:54;;;;;;;22.50;11.60;;;;;;;1.28;75.11;100033.28;220273;1271;22562;-68
2022/01/23 12:19:20;;;;;;;22.50;11.90;;;;;;;1.27;75.24;100032.54;220041;1271;22556;-68
2022/01/23 12:24:24;;;;;;;20.40;10.80;;;;;;;1.32;74.93;100030.92;220399;1271;26091;-68
2022/01/23 12:29:28;;;;;;;22.00;10.90;;;;;;;1.40;75.11;100028.63;220451;1271;25912;-68
2022/01/23 12:34:53;;;;;;;21.40;11.60;;;;;;;1.54;74.91;100028.95;220428;1270;22556;-68
2022/01/23 12:40:40;;;;;;;20.00;11.10;;;;;;;1.53;74.33;100036.10;220179;1271;25260;-69
2022/01/23 12:45:50;;;;;;;22.10;11.30;;;;;;;1.42;73.99;100039.11;218742;1277;22586;-68
2022/01/23 12:51:07;;;;;;;23.50;12.50;;;;;;;1.23;73.84;100040.45;220151;1271;25372;-69
2022/01/23 12:56:30;;;;;;;24.40;13.30;;;;;;;1.06;73.79;100039.50;220326;1271;22554;-68
2022/01/23 13:01:37;;;;;;;22.40;12.30;;;;;;;1.01;74.27;100040.65;220383;1271;22559;-68
2022/01/23 13:06:59;;;;;;;20.80;12.40;;;;;;;0.94;74.09;100039.03;220385;1271;22698;-68
2022/01/23 13:34:20;;;;;;;;;;;;;;;;;;;;;
2022/01/23 13:39:47;;;;;;;25.90;13.20;;;;;;;0.62;74.66;100026.33;220225;1271;24285;-67
2022/01/23 14:07:03;;;;;;;25.70;12.70;;;;;;;0.36;74.48;100045.91;219744;1271;24709;-68
2022/01/23 14:12:11;;;;;;;18.50;10.90;;;;;;;0.33;74.70;100048.38;219991;1269;25374;-68
2022/01/23 14:17:15;;;;;;;20.80;11.00;;;;;;;0.29;74.66;100055.38;220346;1271;25744;-68
2022/01/23 14:22:30;;;;;;;17.80;9.40;;;;;;;0.26;74.61;100060.70;220173;1271;24288;-67
2022/01/23 14:27:36;;;;;;;22.70;10.20;;;;;;;0.20;74.71;100067.70;220107;1271;24245;-67
2022/01/23 14:32:51;;;;;;;19.60;9.80;;;;;;;0.18;74.80;100064.64;220253;1271;24403;-67
2022/01/23 14:38:09;;;;;;;21.90;10.90;;;;;;;0.15;74.70;100059.27;220449;1270;22580;-68
2022/01/23 14:43:13;;;;;;;24.60;11.70;;;;;;;0.12;74.67;100066.02;219783;1271;24426;-67
2022/01/23 14:48:17;;;;;;;19.00;10.20;;;;;;;0.06;74.46;100073.94;220026;1270;23358;-68
2022/01/23 14:53:30;;;;;;;23.80;12.10;;;;;;;-0.05;74.26;100075.49;219775;1271;25554;-67
2022/01/23 14:58:51;;;;;;;32.80;15.00;;;;;;;-0.19;74.56;100077.83;220164;1271;22646;-67
2022/01/23 15:04:09;;;;;;;28.00;13.10;;;;;;;-0.24;74.91;100087.40;219883;1271;24231;-69
2022/01/23 15:09:22;;;;;;;21.90;10.50;;;;;;;-0.27;74.77;100084.28;220141;1271;23003;-68
2022/01/23 15:14:24;;;;;;;21.50;11.10;;;;;;;-0.31;74.96;100082.79;220188;1271;24266;-69
2022/01/23 15:19:26;;;;;;;25.30;12.10;;;;;;;-0.35;74.97;100086.95;220012;1271;22619;-67
2022/01/23 15:29:49;;;;;;;24.40;11.60;;;;;;;-0.48;75.21;100112.59;220214;1271;25585;-69
2022/01/23 15:34:54;;;;;;;25.20;12.60;;;;;;;-0.56;75.17;100120.87;219852;1271;22572;-68
2022/01/23 15:39:59;;;;;;;24.00;11.60;;;;;;;-0.61;75.28;100114.65;220145;1270;22621;-68
2022/01/23 15:45:29;;;;;;;23.40;12.80;;;;;;;-0.66;75.44;100129.24;219834;1271;24268;-68
2022/01/23 15:50:55;;;;;;;;;;;;;;;;;;;;;
2022/01/23 15:56:52;;;;;;;22.20;11.60;;;;;;;-0.72;75.60;100146.04;220070;1269;22721;-68
2022/01/23 16:02:36;;;;;;;22.70;11.50;;;;;;;-0.75;75.93;100153.40;219810;1270;22558;-68
2022/01/23 16:07:41;;;;;;;31.00;16.00;;;;;;;-0.74;75.92;100162.69;220047;1271;25438;-68
2022/01/23 16:12:47;;;;;;;29.00;14.00;;;;;;;-0.73;76.10;100167.27;219950;1271;23277;-68
2022/01/23 16:17:50;;;;;;;28.90;14.50;;;;;;;-0.73;76.01;100172.38;220263;1271;25431;-68
2022/01/23 16:22:57;;;;;;;26.20;13.20;;;;;;;-0.74;75.91;100168.20;219961;1269;25482;-67
2022/01/23 16:28:02;;;;;;;31.00;13.30;;;;;;;-0.77;76.10;100159.20;219979;1270;25739;-67
2022/01/23 16:33:07;;;;;;;25.40;13.30;;;;;;;-0.79;76.29;100165.69;220109;1270;22656;-68
2022/01/23 16:38:12;;;;;;;24.60;12.70;;;;;;;-0.78;76.45;100168.39;220123;1270;22558;-68
2022/01/23 16:43:17;;;;;;;24.00;13.60;;;;;;;-0.74;76.34;100171.10;220239;1271;22538;-68
2022/01/23 16:48:22;;;;;;;30.00;14.40;;;;;;;-0.72;76.22;100170.81;220034;1270;22555;-68
2022/01/23 16:53:28;;;;;;;28.00;13.20;;;;;;;-0.71;76.21;100168.38;220071;1271;26694;-68
2022/01/23 16:58:47;;;;;;;24.70;13.40;;;;;;;-0.68;76.22;100169.86;219994;1271;22560;-68
2022/01/23 17:03:56;;;;;;;26.60;13.70;;;;;;;-0.71;76.22;100162.77;220312;1271;22820;-68
2022/01/23 17:09:06;;;;;;;31.70;14.80;;;;;;;-0.73;76.17;100175.10;219791;1271;22547;-69
2022/01/23 17:14:08;;;;;;;28.00;14.00;;;;;;;-0.74;76.45;100177.58;219690;1271;22574;-68
2022/01/23 17:19:31;;;;;;;31.00;14.30;;;;;;;-0.74;76.34;100187.05;220177;1270;22701;-68
2022/01/23 17:24:54;;;;;;;30.20;14.80;;;;;;;-0.77;76.45;100197.52;219820;1271;24151;-68
2022/01/23 17:29:56;;;;;;;24.70;13.40;;;;;;;-0.77;76.26;100193.50;220075;1271;22673;-69
2022/01/23 17:35:03;;;;;;;27.50;14.20;;;;;;;-0.78;76.52;100194.85;220154;1270;25540;-68
2022/01/23 17:40:06;;;;;;;29.00;13.30;;;;;;;-0.76;76.36;100197.15;220104;1271;22605;-67
2022/01/23 17:51:47;;;;;;;26.70;12.80;;;;;;;-0.73;76.51;100190.81;219486;1271;22715;-68
2022/01/23 17:56:55;;;;;;;25.10;12.90;;;;;;;-0.73;76.61;100188.52;220075;1271;23978;-68
2022/01/23 18:02:00;;;;;;;24.70;12.20;;;;;;;-0.73;76.55;100187.60;220045;1271;22654;-69
2022/01/23 18:07:08;;;;;;;28.10;13.60;;;;;;;-0.71;76.73;100188.38;219931;1271;22780;-68
2022/01/23 18:12:13;;;;;;;27.40;14.30;;;;;;;-0.70;76.66;100187.04;219841;1271;22535;-68
2022/01/23 18:17:21;;;;;;;32.50;16.60;;;;;;;-0.68;76.83;100193.51;220077;1271;25423;-68
2022/01/23 18:22:44;;;;;;;53.20;22.20;;;;;;;-0.69;76.50;100201.69;219847;1271;22577;-68
2022/01/23 18:28:02;;;;;;;71.90;28.70;;;;;;;-0.70;76.56;100204.26;220115;1271;22596;-69
2022/01/23 18:33:08;;;;;;;98.70;33.70;;;;;;;-0.70;76.71;100212.66;220184;1271;22606;-67
2022/01/23 18:38:10;;;;;;;80.20;32.50;;;;;;;-0.71;76.63;100217.91;220127;1271;22858;-68
2022/01/23 18:43:15;;;;;;;89.30;32.70;;;;;;;-0.75;76.76;100225.59;219856;1271;25264;-67
2022/01/23 18:48:17;;;;;;;105.00;38.30;;;;;;;-0.79;76.77;100227.30;219812;1271;22556;-68
2022/01/23 18:53:28;;;;;;;95.10;37.20;;;;;;;-0.82;76.89;100228.48;219993;1271;26836;-69
2022/01/23 18:58:35;;;;;;;88.20;35.50;;;;;;;-0.82;76.94;100232.04;219936;1271;25627;-68
2022/01/23 19:03:44;;;;;;;86.90;33.10;;;;;;;-0.80;77.16;100223.91;219911;1271;22709;-68
2022/01/23 19:08:52;;;;;;;95.50;36.00;;;;;;;-0.80;77.34;100223.52;219796;1271;25371;-69
2022/01/23 19:13:57;;;;;;;62.00;26.90;;;;;;;-0.79;77.31;100218.85;220044;1271;25380;-69
2022/01/23 19:19:00;;;;;;;82.70;32.80;;;;;;;-0.77;77.25;100217.58;220142;1271;22805;-69
2022/01/23 19:24:04;;;;;;;68.60;29.40;;;;;;;-0.76;77.14;100226.59;219497;1271;22683;-68
2022/01/23 19:29:07;;;;;;;92.60;38.50;;;;;;;-0.76;77.42;100224.77;219746;1271;23419;-69
2022/01/23 19:34:10;;;;;;;76.60;30.80;;;;;;;-0.78;76.96;100228.35;219573;1271;24322;-68
2022/01/23 19:39:15;;;;;;;96.90;39.40;;;;;;;-0.84;77.27;100235.72;219696;1270;23043;-68
2022/01/23 19:44:44;;;;;;;102.70;41.90;;;;;;;-0.90;77.19;100241.51;219945;1271;22922;-69
2022/01/23 19:49:45;;;;;;;110.50;42.90;;;;;;;-0.98;77.13;100248.02;219852;1268;22560;-68
2022/01/23 19:54:48;;;;;;;98.50;40.40;;;;;;;-1.03;77.51;100247.73;220071;1271;22550;-68
2022/01/23 19:59:50;;;;;;;107.30;44.60;;;;;;;-1.09;77.35;100245.89;219940;1271;22560;-68
2022/01/23 20:04:53;;;;;;;100.50;42.20;;;;;;;-1.15;77.43;100246.68;219810;1271;24953;-68
2022/01/23 20:10:09;;;;;;;102.00;39.30;;;;;;;-1.21;77.69;100246.23;219914;1271;24253;-67
2022/01/23 20:15:13;;;;;;;100.00;40.60;;;;;;;-1.22;77.83;100250.41;219761;1271;24518;-68
2022/01/23 20:20:16;;;;;;;96.20;38.50;;;;;;;-1.29;77.50;100260.85;219834;1271;189574;-68
2022/01/23 20:25:36;;;;;;;101.20;39.20;;;;;;;-1.33;77.50;100270.44;219721;1271;23991;-68
2022/01/23 20:30:39;;;;;;;68.10;29.50;;;;;;;-1.35;77.95;100269.79;219728;1271;25546;-68
2022/01/23 20:35:42;;;;;;;70.20;32.70;;;;;;;-1.36;77.91;100272.70;219785;1271;24324;-68
2022/01/23 20:46:08;;;;;;;64.80;31.20;;;;;;;-1.44;77.72;100266.75;219689;1271;24221;-68
2022/01/23 20:51:10;;;;;;;69.00;31.60;;;;;;;-1.48;77.97;100265.23;219783;1271;24275;-68
2022/01/23 20:56:16;;;;;;;93.10;39.10;;;;;;;-1.51;78.08;100264.75;219995;1271;22564;-67
2022/01/23 21:01:19;;;;;;;93.00;40.40;;;;;;;-1.51;78.37;100264.92;220004;1271;22558;-68
2022/01/23 21:06:28;;;;;;;80.40;37.30;;;;;;;-1.49;78.68;100263.95;219878;1271;24784;-67
2022/01/23 21:11:34;;;;;;;99.80;47.70;;;;;;;-1.41;78.89;100257.39;219954;1271;22717;-68
2022/01/23 21:22:13;;;;;;;67.00;33.40;;;;;;;-1.19;78.70;100267.23;220086;1271;22606;-68
2022/01/23 21:33:07;;;;;;;85.90;39.40;;;;;;;-1.09;78.65;100268.70;219570;1271;22614;-67
2022/01/23 21:43:31;;;;;;;88.20;38.00;;;;;;;-0.96;78.65;100278.44;219915;1271;22864;-68
2022/01/23 21:48:38;;;;;;;93.70;41.80;;;;;;;-0.93;78.63;100290.19;219603;1271;24275;-68
2022/01/23 21:53:46;;;;;;;117.50;50.40;;;;;;;-0.90;78.52;100297.73;219966;1271;22704;-67
2022/01/23 21:58:49;;;;;;;104.10;45.10;;;;;;;-0.87;78.61;100305.10;219936;1271;24251;-68
2022/01/23 22:03:56;;;;;;;94.30;41.20;;;;;;;-0.86;78.60;100318.73;219956;1271;24583;-68
2022/01/23 22:09:24;;;;;;;89.00;39.40;;;;;;;-0.83;78.43;100322.94;219933;1271;24292;-68
2022/01/23 22:19:54;;;;;;;86.90;39.00;;;;;;;-0.80;78.54;100329.96;219618;1271;23088;-69
2022/01/23 22:31:01;;;;;;;80.50;38.80;;;;;;;-0.80;78.35;100329.14;219865;1270;25004;-67
2022/01/23 22:36:37;;;;;;;87.20;40.20;;;;;;;-0.89;78.31;100320.34;219917;1270;24389;-68
2022/01/23 22:41:40;;;;;;;71.90;34.50;;;;;;;-0.93;78.58;100319.30;219930;1271;22612;-68
2022/01/23 22:46:43;;;;;;;76.40;35.60;;;;;;;-0.95;78.43;100323.98;219906;1271;26341;-68
2022/01/23 22:51:49;;;;;;;77.00;35.20;;;;;;;-0.97;78.27;100316.89;219896;1271;25569;-68
2022/01/23 22:56:52;;;;;;;72.70;35.50;;;;;;;-1.02;78.30;100335.96;219837;1271;25951;-68
2022/01/23 23:01:54;;;;;;;71.10;32.70;;;;;;;-1.04;78.34;100335.64;219732;1271;22682;-68
2022/01/23 23:06:57;;;;;;;80.90;38.20;;;;;;;-1.04;78.61;100344.05;219940;1271;22566;-67
2022/01/23 23:12:12;;;;;;;83.30;37.20;;;;;;;-1.02;78.79;100335.34;219712;1271;24590;-67
2022/01/23 23:17:15;;;;;;;73.70;34.30;;;;;;;-1.01;78.69;100332.45;219814;1271;22586;-66
2022/01/23 23:22:18;;;;;;;70.60;36.50;;;;;;;-1.04;78.91;100335.96;219563;1271;22568;-68
2022/01/23 23:27:20;;;;;;;88.30;38.10;;;;;;;-1.07;78.57;100337.64;219668;1271;22575;-68
2022/01/23 23:32:22;;;;;;;72.00;35.00;;;;;;;-1.10;78.74;100342.12;219898;1271;24177;-67
2022/01/23 23:37:25;;;;;;;70.20;32.80;;;;;;;-1.11;78.59;100340.31;220007;1271;25620;-67
2022/01/23 23:42:39;;;;;;;77.80;32.90;;;;;;;-1.18;78.56;100336.90;219637;1271;22555;-67
2022/01/23 23:47:42;;;;;;;77.10;34.00;;;;;;;-1.25;78.77;100336.78;219785;1271;22619;-67
2022/01/23 23:52:48;;;;;;;76.40;33.90;;;;;;;-1.25;78.98;100331.91;219984;1271;22609;-67
2022/01/23 23:57:51;;;;;;;74.30;34.20;;;;;;;-1.21;79.43;100341.92;219972;1271;25461;-69
